Time;durP1;ratioP1;P1;durP2;ratioP2;P2;SDS_P1;SDS_P2;PMS_P1;PMS_P2;Temp;Humidity;BMP_temperature;BMP_pressure;BME280_temperature;BME280_humidity;BME280_pressure;Samples;Min_cycle;Max_cycle;Signal;HPM_P1;HPM_P2
2020/12/26 00:01:45;;;;;;;;;;;;;;;7.44;49.14;101724.72;6057622;23;96068;-87
2020/12/26 00:04:11;;;;;;;;;;;;;;;7.50;49.10;101722.91;6055882;23;96674;-87
2020/12/26 00:06:38;;;;;;;;;;;;;;;7.46;49.19;101731.72;6037689;23;97966;-91
2020/12/26 00:09:04;;;;;;;;;;;;;;;7.36;49.19;101734.41;6049475;23;99129;-86
2020/12/26 00:11:35;;;;;;;;;;;;;;;7.40;49.48;101728.25;6053810;23;96525;-86
2020/12/26 00:14:03;;;;;;;;;;;;;;;7.57;49.47;101722.00;6028389;23;100723;-90
2020/12/26 00:16:29;;;;;;;;;;;;;;;7.55;48.90;101723.75;6052232;23;100466;-90
2020/12/26 00:18:59;;;;;;;;;;;;;;;7.55;48.95;101717.63;6044771;23;100063;-90
2020/12/26 00:21:25;;;;;;;;;;;;;;;7.44;49.44;101724.72;6056206;23;96801;-89
2020/12/26 00:23:51;;;;;;;;;;;;;;;7.58;49.07;101726.38;6054013;23;96567;-89
2020/12/26 00:26:21;;;;;;;;;;;;;;;7.29;49.36;101715.16;6056893;23;99228;-86
2020/12/26 00:28:49;;;;;;;;;;;;;;;7.22;49.82;101721.34;6059225;23;96690;-85
2020/12/26 00:31:16;;;;;;;;;;;;;;;7.25;49.51;101715.22;6059534;23;96211;-87
2020/12/26 00:33:43;;;;;;;;;;;;;;;7.24;49.55;101723.97;6058390;23;96668;-88
2020/12/26 00:36:09;;;;;;;;;;;;;;;6.80;50.92;101715.47;6056451;23;98232;-89
2020/12/26 00:38:35;;;;;;;;;;;;;;;7.30;49.58;101723.94;6054362;23;100111;-90
2020/12/26 00:41:01;;;;;;;;;;;;;;;7.24;49.44;101722.22;6057164;23;96692;-89
2020/12/26 00:43:27;;;;;;;;;;;;;;;7.28;49.51;101720.47;6056203;23;96722;-89
2020/12/26 00:45:55;;;;;;;;;;;;;;;7.17;49.78;101731.91;6057174;23;98178;-89
2020/12/26 00:48:21;;;;;;;;;;;;;;;7.41;49.49;101743.16;6046464;23;98068;-89
2020/12/26 00:50:46;;;;;;;;;;;;;;;7.51;48.87;101740.44;6041532;23;96640;-88
2020/12/26 00:53:12;;;;;;;;;;;;;;;7.23;49.26;101733.63;6039092;23;96770;-87
2020/12/26 00:55:38;;;;;;;;;;;;;;;7.29;49.01;101740.59;6038846;23;99137;-87
2020/12/26 00:58:04;;;;;;;;;;;;;;;7.18;49.64;101735.41;6039167;23;100410;-88
2020/12/26 01:00:30;;;;;;;;;;;;;;;7.13;49.44;101732.81;6053094;23;96621;-88
2020/12/26 01:02:58;;;;;;;;;;;;;;;7.27;49.43;101731.84;6042919;23;96645;-87
2020/12/26 01:05:24;;;;;;;;;;;;;;;7.06;49.83;101732.84;6047905;23;96922;-88
2020/12/26 01:07:50;;;;;;;;;;;;;;;6.65;51.05;101738.28;6053345;23;96857;-87
2020/12/26 01:10:16;;;;;;;;;;;;;;;7.13;50.12;101737.19;6055737;23;96431;-87
2020/12/26 01:12:42;;;;;;;;;;;;;;;6.95;50.54;101739.94;6054709;23;96466;-86
2020/12/26 01:15:07;;;;;;;;;;;;;;;7.15;49.52;101733.66;6056004;23;97829;-87
2020/12/26 01:17:33;;;;;;;;;;;;;;;6.89;49.70;101746.09;6055637;23;98055;-87
2020/12/26 01:20:00;;;;;;;;;;;;;;;7.10;49.77;101752.97;6050002;23;96656;-85
2020/12/26 01:22:26;;;;;;;;;;;;;;;7.37;49.08;101746.69;6037779;23;96807;-87
2020/12/26 01:24:52;;;;;;;;;;;;;;;6.72;50.33;101754.03;6037604;23;99871;-87
2020/12/26 01:27:17;;;;;;;;;;;;;;;7.06;50.06;101754.75;6035638;23;99157;-87
2020/12/26 01:29:43;;;;;;;;;;;;;;;7.41;48.95;101751.94;6038797;23;96572;-87
2020/12/26 01:32:09;;;;;;;;;;;;;;;7.24;48.84;101759.03;6036931;23;96817;-87
2020/12/26 01:34:35;;;;;;;;;;;;;;;7.20;49.55;101767.81;6036595;23;98897;-87
2020/12/26 01:37:02;;;;;;;;;;;;;;;6.94;49.96;101764.44;6036731;23;99397;-88
2020/12/26 01:39:29;;;;;;;;;;;;;;;6.84;49.77;101770.59;6038063;23;96901;-87
2020/12/26 01:41:55;;;;;;;;;;;;;;;7.21;49.46;101759.06;6038659;23;96916;-86
2020/12/26 01:44:21;;;;;;;;;;;;;;;7.18;49.55;101769.59;6039257;23;98184;-89
2020/12/26 01:46:50;;;;;;;;;;;;;;;7.38;48.96;101765.09;6041085;23;97895;-89
2020/12/26 01:49:17;;;;;;;;;;;;;;;7.15;49.00;101773.09;6045711;23;96662;-91
2020/12/26 01:51:45;;;;;;;;;;;;;;;7.42;48.93;101764.16;6053924;23;96610;-88
2020/12/26 01:54:12;;;;;;;;;;;;;;;7.28;48.89;101768.66;6054536;23;100152;-88
2020/12/26 01:56:38;;;;;;;;;;;;;;;7.31;48.81;101763.38;6046807;23;99372;-87
2020/12/26 01:59:04;;;;;;;;;;;;;;;7.09;48.96;101766.97;6041293;23;96627;-89
2020/12/26 02:01:34;;;;;;;;;;;;;;;7.10;48.95;101771.38;6012539;23;96591;-89
2020/12/26 02:04:00;;;;;;;;;;;;;;;7.13;49.21;101771.38;6037399;23;98997;-89
2020/12/26 02:06:29;;;;;;;;;;;;;;;6.98;49.50;101771.44;6037837;23;99548;-89
2020/12/26 02:08:55;;;;;;;;;;;;;;;7.09;49.61;101773.13;6041236;23;96601;-88
2020/12/26 02:11:21;;;;;;;;;;;;;;;7.19;48.58;101758.19;6045509;23;96780;-88
2020/12/26 02:13:47;;;;;;;;;;;;;;;7.10;48.83;101763.47;6040252;23;98144;-87
2020/12/26 02:16:13;;;;;;;;;;;;;;;7.19;48.69;101763.44;6046455;23;100014;-88
2020/12/26 02:18:40;;;;;;;;;;;;;;;7.22;48.62;101768.66;6045853;23;96638;-85
2020/12/26 02:21:06;;;;;;;;;;;;;;;6.98;49.31;101767.06;6046856;23;96955;-88
2020/12/26 02:23:33;;;;;;;;;;;;;;;7.09;48.92;101759.97;6043137;23;98269;-88
2020/12/26 02:25:59;;;;;;;;;;;;;;;7.08;48.83;101760.00;6040738;23;98103;-87
2020/12/26 02:28:25;;;;;;;;;;;;;;;7.03;48.89;101748.63;6038329;23;96828;-87
2020/12/26 02:30:51;;;;;;;;;;;;;;;7.29;48.41;101743.22;6035949;23;96701;-86
2020/12/26 02:33:17;;;;;;;;;;;;;;;7.09;48.55;101746.84;6036896;23;99006;-85
2020/12/26 02:35:52;;;;;;;;;;;;;;;7.14;48.22;101744.22;6038460;23;98893;-87
2020/12/26 02:38:18;;;;;;;;;;;;;;;6.96;48.86;101744.28;6039539;23;96833;-86
2020/12/26 02:40:46;;;;;;;;;;;;;;;7.08;48.59;101746.88;6039584;23;96562;-88
2020/12/26 02:43:19;;;;;;;;;;;;;;;7.02;48.67;101752.16;6043585;23;98929;-87
2020/12/26 02:45:46;;;;;;;;;;;;;;;7.13;48.44;101745.09;6042336;23;98236;-87
2020/12/26 02:48:12;;;;;;;;;;;;;;;7.18;48.31;101735.41;6044966;23;96689;-88
2020/12/26 02:50:38;;;;;;;;;;;;;;;7.08;48.22;101752.13;6043647;23;96926;-88
2020/12/26 02:53:04;;;;;;;;;;;;;;;7.23;47.88;101752.03;6045351;23;99608;-86
2020/12/26 02:55:30;;;;;;;;;;;;;;;7.34;47.88;101744.09;6044551;23;98885;-88
2020/12/26 02:57:55;;;;;;;;;;;;;;;6.98;48.74;101750.41;6042144;23;97432;-88
2020/12/26 03:00:22;;;;;;;;;;;;;;;7.08;48.06;101738.97;6043073;23;96805;-87
2020/12/26 03:02:48;;;;;;;;;;;;;;;6.78;48.93;101746.13;6043504;23;99289;-87
2020/12/26 03:05:14;;;;;;;;;;;;;;;6.98;48.65;101745.16;6041700;23;99189;-87
2020/12/26 03:07:39;;;;;;;;;;;;;;;7.01;48.07;101745.16;6041324;23;96700;-87
2020/12/26 03:10:05;;;;;;;;;;;;;;;7.00;48.52;101748.66;6042219;23;96729;-88
2020/12/26 03:12:31;;;;;;;;;;;;;;;6.96;48.47;101744.28;6044509;23;96934;-86
2020/12/26 03:14:57;;;;;;;;;;;;;;;7.15;47.89;101749.44;6052752;23;100269;-87
2020/12/26 03:17:24;;;;;;;;;;;;;;;6.92;48.61;101751.31;6057891;23;96438;-87
2020/12/26 03:19:50;;;;;;;;;;;;;;;6.99;48.37;101746.91;6057241;23;96320;-86
2020/12/26 03:22:16;;;;;;;;;;;;;;;7.07;48.42;101750.38;6056885;23;97793;-85
2020/12/26 03:24:42;;;;;;;;;;;;;;;6.76;48.88;101750.50;6058883;23;97832;-85
2020/12/26 03:27:08;;;;;;;;;;;;;;;6.93;48.35;101753.06;6044653;23;96628;-86
2020/12/26 03:29:34;;;;;;;;;;;;;;;7.04;48.49;101755.63;6026585;23;96569;-86
2020/12/26 03:31:59;;;;;;;;;;;;;;;7.03;48.54;101770.53;6051630;23;98361;-87
2020/12/26 03:34:26;;;;;;;;;;;;;;;7.07;48.17;101771.41;6048212;23;98268;-86
2020/12/26 03:36:52;;;;;;;;;;;;;;;6.98;48.37;101772.31;6055315;23;96570;-87
2020/12/26 03:39:18;;;;;;;;;;;;;;;7.07;47.99;101776.66;6051219;23;96653;-87
2020/12/26 03:41:44;;;;;;;;;;;;;;;6.94;48.53;101770.59;6051545;23;98074;-88
2020/12/26 03:44:10;;;;;;;;;;;;;;;6.99;48.15;101783.69;6055641;23;97810;-87
2020/12/26 03:46:36;;;;;;;;;;;;;;;6.88;48.46;101786.38;6061054;23;96651;-87
2020/12/26 03:49:02;;;;;;;;;;;;;;;7.04;47.57;101784.53;6060132;23;96449;-87
2020/12/26 03:51:28;;;;;;;;;;;;;;;6.73;48.52;101782.03;6058965;23;100202;-88
2020/12/26 03:53:54;;;;;;;;;;;;;;;6.99;47.92;101784.56;6057899;23;99814;-87
2020/12/26 03:56:21;;;;;;;;;;;;;;;6.88;47.99;101786.38;6047399;23;96460;-87
2020/12/26 03:58:46;;;;;;;;;;;;;;;7.04;48.22;101792.41;6039635;23;97222;-87
2020/12/26 04:01:12;;;;;;;;;;;;;;;7.08;47.87;101789.78;6039115;23;97836;-87
2020/12/26 04:03:38;;;;;;;;;;;;;;;6.94;48.21;101802.13;6038959;23;100985;-86
2020/12/26 04:06:04;;;;;;;;;;;;;;;6.67;48.58;101810.09;6039489;23;96704;-85
2020/12/26 04:08:31;;;;;;;;;;;;;;;6.71;48.71;101804.81;6042005;23;96554;-86
2020/12/26 04:10:57;;;;;;;;;;;;;;;6.88;48.04;101809.16;6037728;23;99572;-85
2020/12/26 04:13:23;;;;;;;;;;;;;;;6.82;48.27;101806.53;6037843;23;98789;-85
2020/12/26 04:15:49;;;;;;;;;;;;;;;6.78;48.50;101811.78;6038970;23;96607;-87
2020/12/26 04:18:15;;;;;;;;;;;;;;;6.98;48.08;101821.34;6038127;23;96688;-88
2020/12/26 04:20:40;;;;;;;;;;;;;;;6.58;48.94;101810.09;6038540;23;98136;-87
2020/12/26 04:23:06;;;;;;;;;;;;;;;6.66;48.54;101811.84;6037816;23;96988;-87
2020/12/26 04:25:33;;;;;;;;;;;;;;;6.71;48.68;101806.56;6038173;23;96640;-87
2020/12/26 04:27:59;;;;;;;;;;;;;;;6.83;48.08;101803.03;6037366;23;96771;-86
2020/12/26 04:30:24;;;;;;;;;;;;;;;6.81;47.88;101800.41;6039897;23;98721;-87
2020/12/26 04:32:51;;;;;;;;;;;;;;;6.89;48.00;101784.63;6014432;23;98099;-86
2020/12/26 04:35:19;;;;;;;;;;;;;;;6.74;48.20;101796.06;6042816;23;96814;-87
2020/12/26 04:37:45;;;;;;;;;;;;;;;7.08;47.66;101796.81;6040958;23;96689;-86
2020/12/26 04:40:11;;;;;;;;;;;;;;;7.16;47.23;101781.84;6041820;23;97817;-86
2020/12/26 04:42:38;;;;;;;;;;;;;;;7.06;47.31;101786.28;6040881;23;97990;-86
2020/12/26 04:45:04;;;;;;;;;;;;;;;7.07;47.02;101782.78;6039739;23;96588;-86
2020/12/26 04:47:30;;;;;;;;;;;;;;;7.26;47.25;101786.19;6037101;23;96684;-87
2020/12/26 04:49:58;;;;;;;;;;;;;;;7.09;46.99;101781.00;6036054;23;97619;-87
2020/12/26 04:52:25;;;;;;;;;;;;;;;7.13;46.77;101781.88;6035825;23;98529;-87
2020/12/26 04:54:53;;;;;;;;;;;;;;;6.94;47.38;101790.72;6036692;23;96897;-87
2020/12/26 04:57:21;;;;;;;;;;;;;;;7.05;47.27;101787.16;6035734;23;96659;-87
2020/12/26 04:59:48;;;;;;;;;;;;;;;6.80;47.22;101789.03;6035591;23;99241;-87
2020/12/26 05:02:14;;;;;;;;;;;;;;;7.14;46.94;101781.88;6034879;23;99267;-87
2020/12/26 05:04:41;;;;;;;;;;;;;;;6.91;47.26;101783.72;6036423;23;96564;-87
2020/12/26 05:07:07;;;;;;;;;;;;;;;7.13;46.64;101772.25;6037455;23;96692;-87
2020/12/26 05:09:32;;;;;;;;;;;;;;;6.86;47.32;101771.50;6040020;23;97763;-87
2020/12/26 05:12:00;;;;;;;;;;;;;;;6.84;47.20;101770.59;6043706;23;98781;-86
2020/12/26 05:14:28;;;;;;;;;;;;;;;6.96;47.36;101773.19;6047609;23;96645;-87
2020/12/26 05:16:54;;;;;;;;;;;;;;;6.75;48.14;101777.66;6050575;23;97005;-87
2020/12/26 05:19:20;;;;;;;;;;;;;;;6.39;48.48;101773.38;6050406;23;97848;-86
2020/12/26 05:21:47;;;;;;;;;;;;;;;6.66;47.96;101775.06;6056339;23;97770;-87
2020/12/26 05:24:13;;;;;;;;;;;;;;;6.49;48.48;101776.00;6056949;23;96404;-86
2020/12/26 05:26:39;;;;;;;;;;;;;;;6.42;48.28;101774.25;6058925;23;95904;-84
2020/12/26 05:29:06;;;;;;;;;;;;;;;6.59;48.30;101773.34;6058386;23;100643;-88
2020/12/26 05:31:45;;;;;;;;;;;;;;;6.49;48.31;101769.00;6057185;23;97817;-88
2020/12/26 05:34:12;;;;;;;;;;;;;;;6.43;48.12;101769.00;6048795;23;96465;-88
2020/12/26 05:36:38;;;;;;;;;;;;;;;6.06;49.46;101767.31;6052305;23;96654;-86
2020/12/26 05:39:04;;;;;;;;;;;;;;;6.33;48.59;101768.13;6049183;23;97805;-87
2020/12/26 05:41:30;;;;;;;;;;;;;;;6.23;48.62;101770.78;6044561;23;98862;-84
2020/12/26 05:43:56;;;;;;;;;;;;;;;6.34;48.17;101775.16;6039993;23;96617;-88
2020/12/26 05:46:22;;;;;;;;;;;;;;;6.09;49.06;101770.81;6036703;23;96569;-87
2020/12/26 05:48:47;;;;;;;;;;;;;;;6.12;49.17;101770.78;6036545;23;97884;-88
2020/12/26 05:51:22;;;;;;;;;;;;;;;6.11;48.98;101769.03;6036207;23;98916;-88
2020/12/26 05:53:48;;;;;;;;;;;;;;;6.13;49.61;101767.28;6034983;23;96711;-87
2020/12/26 05:56:16;;;;;;;;;;;;;;;6.14;49.83;101773.41;6041195;23;96522;-86
2020/12/26 05:58:42;;;;;;;;;;;;;;;5.96;50.36;101769.94;6037101;23;98093;-87
2020/12/26 06:01:08;;;;;;;;;;;;;;;5.91;50.98;101776.03;6037832;23;99124;-87
2020/12/26 06:03:34;;;;;;;;;;;;;;;6.05;50.84;101778.66;6037791;23;96645;-87
2020/12/26 06:06:00;;;;;;;;;;;;;;;6.03;50.78;101762.06;6038318;23;96681;-87
2020/12/26 06:08:28;;;;;;;;;;;;;;;5.65;52.11;101765.50;6035839;23;98846;-87
2020/12/26 06:10:54;;;;;;;;;;;;;;;5.88;51.84;101755.06;6035669;23;98782;-86
2020/12/26 06:13:21;;;;;;;;;;;;;;;6.03;50.99;101762.06;6034528;23;96787;-86
2020/12/26 06:15:51;;;;;;;;;;;;;;;6.04;51.10;101763.81;6033928;23;96731;-87
2020/12/26 06:18:18;;;;;;;;;;;;;;;5.83;51.94;101769.91;6033643;23;100907;-87
2020/12/26 06:20:44;;;;;;;;;;;;;;;6.03;51.55;101772.56;6033853;23;100981;-86
2020/12/26 06:23:15;;;;;;;;;;;;;;;5.99;51.84;101775.19;6034451;23;96766;-85
2020/12/26 06:25:42;;;;;;;;;;;;;;;5.93;52.14;101783.06;6038160;23;96697;-85
2020/12/26 06:28:14;;;;;;;;;;;;;;;5.90;51.73;101785.69;6044163;23;97810;-85
2020/12/26 06:30:40;;;;;;;;;;;;;;;5.86;52.49;101783.88;6033423;23;98912;-84
2020/12/26 06:33:06;;;;;;;;;;;;;;;5.89;52.13;101789.19;6041986;23;96646;-83
2020/12/26 06:35:32;;;;;;;;;;;;;;;5.89;52.23;101788.31;6040366;23;96882;-83
2020/12/26 06:38:15;;;;;;;;;;;;;;;5.88;52.72;101797.91;6044563;23;98092;-86
2020/12/26 06:40:52;;;;;;;;;;;;;;;5.84;52.62;101790.03;6038774;23;97819;-84
2020/12/26 06:43:36;;;;;;;;;;;;;;;5.66;53.25;101790.88;6037599;23;96768;-84
2020/12/26 06:46:02;;;;;;;;;;;;;;;5.60;53.88;101791.75;6042146;23;96609;-86
2020/12/26 06:48:33;;;;;;;;;;;;;;;5.74;53.70;101790.88;6052847;23;97862;-86
2020/12/26 06:51:21;;;;;;;;;;;;;;;5.93;52.74;101790.91;6050006;23;99871;-87
2020/12/26 06:53:47;;;;;;;;;;;;;;;5.86;53.04;101786.50;6041653;23;97040;-86
2020/12/26 06:56:44;;;;;;;;;;;;;;;5.50;53.97;101786.50;6039465;23;96834;-86
2020/12/26 06:59:11;;;;;;;;;;;;;;;5.79;53.72;101786.50;6037473;23;98208;-86
2020/12/26 07:01:37;;;;;;;;;;;;;;;5.75;53.76;101790.88;6037523;23;98888;-86
2020/12/26 07:04:13;;;;;;;;;;;;;;;5.55;53.39;101796.09;6035914;23;96637;-86
2020/12/26 07:06:40;;;;;;;;;;;;;;;5.49;54.43;101796.09;6034653;23;96930;-86
2020/12/26 07:09:06;;;;;;;;;;;;;;;5.54;54.17;101793.47;6034625;23;98259;-86
2020/12/26 07:11:42;;;;;;;;;;;;;;;5.44;54.92;101796.97;6034323;23;99891;-85
2020/12/26 07:14:08;;;;;;;;;;;;;;;5.82;53.55;101797.00;6034200;23;96899;-86
2020/12/26 07:16:34;;;;;;;;;;;;;;;5.87;53.47;101795.25;6034326;23;96838;-88
2020/12/26 07:19:15;;;;;;;;;;;;;;;5.80;53.65;101797.00;6035529;23;99441;-86
2020/12/26 07:21:42;;;;;;;;;;;;;;;5.82;53.32;101803.13;6033270;23;97781;-87
2020/12/26 07:24:10;;;;;;;;;;;;;;;5.60;54.04;101801.34;6035877;23;96700;-86
2020/12/26 07:26:37;;;;;;;;;;;;;;;5.36;54.53;101807.44;6036477;23;96910;-87
2020/12/26 07:29:03;;;;;;;;;;;;;;;5.53;54.13;101805.72;6035596;23;98911;-86
2020/12/26 07:31:46;;;;;;;;;;;;;;;5.35;54.87;101816.16;6036834;23;100603;-87
2020/12/26 07:34:34;;;;;;;;;;;;;;;5.36;55.26;101817.91;6034911;23;96555;-85
2020/12/26 07:36:59;;;;;;;;;;;;;;;5.60;54.08;101815.34;6034894;23;96856;-84
2020/12/26 07:39:25;;;;;;;;;;;;;;;5.47;55.24;101817.94;6032259;23;101375;-85
2020/12/26 07:41:52;;;;;;;;;;;;;;;5.69;54.85;101811.88;6039501;23;98795;-86
2020/12/26 07:44:18;;;;;;;;;;;;;;;5.85;53.86;101813.63;6042972;23;96633;-86
2020/12/26 07:46:44;;;;;;;;;;;;;;;5.84;53.92;101811.00;6037967;23;96891;-86
2020/12/26 07:49:13;;;;;;;;;;;;;;;5.92;54.27;101811.91;6038547;23;98081;-86
2020/12/26 07:51:39;;;;;;;;;;;;;;;5.93;54.40;101817.16;6042815;23;98793;-86
2020/12/26 07:54:04;;;;;;;;;;;;;;;5.80;54.80;101814.50;6047545;23;96573;-86
2020/12/26 07:56:30;;;;;;;;;;;;;;;5.75;54.79;101819.75;6055785;23;96595;-84
2020/12/26 07:58:57;;;;;;;;;;;;;;;6.03;54.34;101818.03;6050310;23;99885;-83
2020/12/26 08:01:24;;;;;;;;;;;;;;;6.06;54.26;101818.03;6039692;23;99331;-86
2020/12/26 08:03:58;;;;;;;;;;;;;;;5.91;54.91;101824.13;6039651;23;96568;-85
2020/12/26 08:06:25;;;;;;;;;;;;;;;5.98;54.63;101814.53;6042962;23;96610;-86
2020/12/26 08:08:51;;;;;;;;;;;;;;;6.20;53.67;101816.28;6039921;23;99557;-85
2020/12/26 08:11:22;;;;;;;;;;;;;;;5.82;54.83;101818.88;6035725;23;98916;-86
2020/12/26 08:13:59;;;;;;;;;;;;;;;5.94;54.99;101818.91;6039276;23;97174;-86
2020/12/26 08:16:25;;;;;;;;;;;;;;;5.84;55.27;101816.25;6038063;23;97161;-87
2020/12/26 08:18:51;;;;;;;;;;;;;;;6.15;54.57;101818.03;6038764;23;98689;-86
2020/12/26 08:21:18;;;;;;;;;;;;;;;6.18;54.59;101825.91;6037739;23;100815;-86
2020/12/26 08:23:43;;;;;;;;;;;;;;;5.36;56.85;101823.16;6038755;23;96636;-87
2020/12/26 08:26:09;;;;;;;;;;;;;;;5.82;55.59;101813.63;6047298;23;96831;-87
2020/12/26 08:28:36;;;;;;;;;;;;;;;6.14;54.81;101811.03;6052664;23;100086;-88
2020/12/26 08:31:03;;;;;;;;;;;;;;;6.31;54.18;101813.63;6050182;23;99980;-88
2020/12/26 08:33:30;;;;;;;;;;;;;;;6.33;54.22;101814.53;6020515;23;96776;-87
2020/12/26 08:36:04;;;;;;;;;;;;;;;6.56;53.55;101810.13;6037848;23;96606;-88
2020/12/26 08:38:34;;;;;;;;;;;;;;;6.28;54.26;101819.78;6038008;23;98992;-88
2020/12/26 08:41:02;;;;;;;;;;;;;;;6.31;54.41;101821.50;6036197;23;98934;-88
2020/12/26 08:43:29;;;;;;;;;;;;;;;6.33;54.03;101823.28;6040322;23;96657;-88
2020/12/26 08:45:55;;;;;;;;;;;;;;;6.42;53.76;101822.41;6042771;23;96581;-89
2020/12/26 08:48:24;;;;;;;;;;;;;;;6.13;54.50;101825.03;6040063;23;99402;-88
2020/12/26 08:50:53;;;;;;;;;;;;;;;6.41;53.80;101812.75;6013727;23;98740;-88
2020/12/26 08:53:21;;;;;;;;;;;;;;;6.68;53.40;101819.72;6044232;23;96612;-87
2020/12/26 08:55:47;;;;;;;;;;;;;;;6.45;54.18;101822.38;6047723;23;96673;-87
2020/12/26 08:58:22;;;;;;;;;;;;;;;6.49;53.58;101818.00;6052218;23;97926;-87
2020/12/26 09:00:48;;;;;;;;;;;;;;;6.61;53.53;101829.34;6051918;23;96599;-87
2020/12/26 09:03:19;;;;;;;;;;;;;;;6.55;53.90;101839.00;6049228;23;96491;-86
2020/12/26 09:05:46;;;;;;;;;;;;;;;6.52;53.93;101831.13;6052987;23;96536;-87
2020/12/26 09:08:12;;;;;;;;;;;;;;;6.53;53.33;101828.50;6047852;23;97976;-86
2020/12/26 09:10:38;;;;;;;;;;;;;;;6.86;53.01;101824.91;6036467;23;99358;-86
2020/12/26 09:13:05;;;;;;;;;;;;;;;6.96;52.27;101831.00;6036509;23;96735;-86
2020/12/26 09:15:49;;;;;;;;;;;;;;;6.78;52.87;101822.31;6035829;23;96783;-86
2020/12/26 09:18:15;;;;;;;;;;;;;;;6.46;53.56;101818.88;6035658;23;99318;-86
2020/12/26 09:20:46;;;;;;;;;;;;;;;7.03;52.43;101824.84;6036730;23;100336;-86
2020/12/26 09:23:12;;;;;;;;;;;;;;;7.04;52.47;101819.56;6046096;23;96564;-87
2020/12/26 09:25:38;;;;;;;;;;;;;;;6.92;52.41;101811.75;6051616;23;96599;-87
2020/12/26 09:28:04;;;;;;;;;;;;;;;7.05;52.07;101816.06;6056605;23;97839;-81
2020/12/26 09:30:29;;;;;;;;;;;;;;;7.27;51.46;101808.97;6057009;23;97676;-86
2020/12/26 09:32:55;;;;;;;;;;;;;;;7.25;51.33;101813.34;6056313;23;96431;-86
2020/12/26 09:35:21;;;;;;;;;;;;;;;7.51;50.49;101800.94;6056328;23;96108;-87
2020/12/26 09:37:51;;;;;;;;;;;;;;;6.95;51.71;101818.75;6048710;23;99389;-87
2020/12/26 09:40:18;;;;;;;;;;;;;;;7.07;51.59;101813.44;6045472;23;100447;-88
2020/12/26 09:42:44;;;;;;;;;;;;;;;7.59;50.13;101812.28;6048554;23;96527;-88
2020/12/26 09:45:10;;;;;;;;;;;;;;;7.55;50.29;101813.19;6047894;23;96632;-87
2020/12/26 09:47:36;;;;;;;;;;;;;;;7.49;49.75;101818.47;6054597;23;99076;-86
2020/12/26 09:50:02;;;;;;;;;;;;;;;7.53;50.20;101812.34;6051534;23;96448;-85
2020/12/26 09:52:28;;;;;;;;;;;;;;;7.37;50.40;101807.16;6052889;23;95959;-84
2020/12/26 09:54:54;;;;;;;;;;;;;;;7.66;49.59;101813.13;6050278;23;96426;-85
2020/12/26 09:57:29;;;;;;;;;;;;;;;7.51;49.56;101800.94;6050086;23;100546;-87
2020/12/26 09:59:55;;;;;;;;;;;;;;;7.63;49.65;101802.59;6051388;23;99458;-83
2020/12/26 10:02:21;;;;;;;;;;;;;;;7.66;49.79;101805.22;6040883;23;96633;-83
2020/12/26 10:04:47;;;;;;;;;;;;;;;7.73;49.30;101798.19;6039674;23;96802;-86
2020/12/26 10:07:13;;;;;;;;;;;;;;;7.78;48.79;101794.63;6040817;23;97664;-83
2020/12/26 10:09:39;;;;;;;;;;;;;;;7.77;49.12;101798.13;6029669;23;101664;-84
2020/12/26 10:12:06;;;;;;;;;;;;;;;7.82;48.84;101792.81;6035617;23;96689;-85
2020/12/26 10:14:31;;;;;;;;;;;;;;;7.75;48.99;101804.28;6036600;23;96826;-85
2020/12/26 10:16:57;;;;;;;;;;;;;;;7.22;50.16;101802.84;6047345;23;97765;-83
2020/12/26 10:19:23;;;;;;;;;;;;;;;7.31;50.22;101796.66;6041857;23;97722;-83
2020/12/26 10:21:51;;;;;;;;;;;;;;;7.18;50.73;101803.75;6037862;23;97129;-84
2020/12/26 10:24:17;;;;;;;;;;;;;;;7.07;51.24;101797.69;6035749;23;96783;-84
2020/12/26 10:26:43;;;;;;;;;;;;;;;7.27;50.93;101794.97;6034406;23;98817;-87
2020/12/26 10:29:09;;;;;;;;;;;;;;;7.50;50.35;101790.41;6037958;23;99040;-89
2020/12/26 10:31:35;;;;;;;;;;;;;;;7.73;49.84;101785.03;6043902;23;96783;-84
2020/12/26 10:34:01;;;;;;;;;;;;;;;7.58;50.53;101780.72;6051109;23;96582;-86
2020/12/26 10:36:27;;;;;;;;;;;;;;;7.50;50.66;101786.03;6052034;23;98047;-85
2020/12/26 10:38:52;;;;;;;;;;;;;;;7.61;50.57;101783.34;6040431;23;96852;-86
2020/12/26 10:41:18;;;;;;;;;;;;;;;7.49;51.13;101773.75;6050297;23;96670;-86
2020/12/26 10:43:44;;;;;;;;;;;;;;;7.70;51.06;101775.38;6050888;23;96038;-84
2020/12/26 10:46:11;;;;;;;;;;;;;;;7.64;51.13;101764.91;6044491;23;97768;-84
2020/12/26 10:48:37;;;;;;;;;;;;;;;7.92;50.51;101774.34;6046230;23;98872;-86
2020/12/26 10:51:05;;;;;;;;;;;;;;;8.04;50.26;101764.59;6052147;23;96621;-85
2020/12/26 10:53:33;;;;;;;;;;;;;;;8.03;50.24;101763.72;6052645;23;96594;-85
2020/12/26 10:56:00;;;;;;;;;;;;;;;7.88;50.73;101763.81;6041499;23;96743;-87
2020/12/26 10:58:27;;;;;;;;;;;;;;;7.78;51.11;101772.69;6042020;23;98889;-87
2020/12/26 11:00:53;;;;;;;;;;;;;;;7.75;51.16;101764.81;6040924;23;97231;-85
2020/12/26 11:03:20;;;;;;;;;;;;;;;7.41;51.80;101766.84;6037623;23;96697;-87
2020/12/26 11:05:48;;;;;;;;;;;;;;;7.50;51.94;101767.63;6039020;23;99251;-87
2020/12/26 11:08:13;;;;;;;;;;;;;;;7.52;52.51;101771.13;6040849;23;99674;-87
2020/12/26 11:10:39;;;;;;;;;;;;;;;7.43;52.99;101771.19;6039754;23;96854;-87
2020/12/26 11:13:05;;;;;;;;;;;;;;;7.28;54.08;101771.28;6040939;23;97126;-87
2020/12/26 11:15:31;;;;;;;;;;;;;;;7.28;54.39;101762.53;6042070;23;98996;-86
2020/12/26 11:17:56;;;;;;;;;;;;;;;7.54;53.13;101755.34;6041866;23;98845;-87
2020/12/26 11:20:23;;;;;;;;;;;;;;;7.39;54.03;101756.31;6048246;23;96725;-82
2020/12/26 11:22:49;;;;;;;;;;;;;;;7.22;54.08;101754.69;6054190;23;96401;-88
2020/12/26 11:25:15;;;;;;;;;;;;;;;7.29;53.76;101751.97;6042212;23;97872;-87
2020/12/26 11:27:40;;;;;;;;;;;;;;;7.47;53.75;101740.50;6038314;23;98771;-85
2020/12/26 11:30:06;;;;;;;;;;;;;;;7.58;53.64;101742.16;6036153;23;96725;-84
2020/12/26 11:32:32;;;;;;;;;;;;;;;7.50;53.64;101743.97;6042952;23;96803;-85
2020/12/26 11:34:58;;;;;;;;;;;;;;;7.61;53.56;101744.75;6038009;23;97769;-85
2020/12/26 11:37:25;;;;;;;;;;;;;;;6.94;54.46;101749.56;6040923;23;98781;-84
2020/12/26 11:39:51;;;;;;;;;;;;;;;7.17;54.41;101739.78;6039411;23;97697;-85
2020/12/26 11:42:16;;;;;;;;;;;;;;;7.35;53.94;101744.06;6039960;23;96871;-85
2020/12/26 11:44:42;;;;;;;;;;;;;;;7.17;54.22;101737.16;6035150;23;98910;-84
2020/12/26 11:47:09;;;;;;;;;;;;;;;7.43;54.17;101729.09;6036648;23;98868;-86
2020/12/26 11:49:34;;;;;;;;;;;;;;;7.15;54.86;101722.31;6036364;23;96967;-85
2020/12/26 11:52:00;;;;;;;;;;;;;;;7.46;54.13;101729.09;6037250;23;97324;-85
2020/12/26 11:54:27;;;;;;;;;;;;;;;7.73;53.61;101729.78;6036426;23;98949;-84
2020/12/26 11:56:53;;;;;;;;;;;;;;;7.47;53.72;101724.72;6040028;23;98136;-83
2020/12/26 11:59:19;;;;;;;;;;;;;;;7.22;54.45;101716.97;6033808;23;97204;-84
2020/12/26 12:02:13;;;;;;;;;;;;;;;7.12;54.67;101715.28;6039320;23;97713;-84
2020/12/26 12:04:39;;;;;;;;;;;;;;;7.31;54.45;101707.28;6044058;23;97847;-85
2020/12/26 12:07:05;;;;;;;;;;;;;;;7.40;53.89;101701.97;6041189;23;100531;-86
2020/12/26 12:09:31;;;;;;;;;;;;;;;7.58;53.64;101700.06;6052885;23;96529;-87
2020/12/26 12:11:57;;;;;;;;;;;;;;;7.58;53.60;101700.06;6050180;23;96491;-86
2020/12/26 12:14:23;;;;;;;;;;;;;;;7.50;53.62;101682.59;6040824;23;97655;-85
2020/12/26 12:16:49;;;;;;;;;;;;;;;7.51;53.99;101685.22;6034960;23;98183;-85
2020/12/26 12:19:15;;;;;;;;;;;;;;;7.35;54.63;101678.31;6034123;23;97279;-85
2020/12/26 12:21:43;;;;;;;;;;;;;;;7.20;55.32;101684.59;6033588;23;97164;-83
2020/12/26 12:24:09;;;;;;;;;;;;;;;7.23;54.81;101681.03;6033270;23;97926;-84
2020/12/26 12:26:36;;;;;;;;;;;;;;;7.16;55.09;101681.97;6037960;23;98809;-84
2020/12/26 12:29:05;;;;;;;;;;;;;;;7.59;54.32;101687.78;6037139;23;96779;-84
2020/12/26 12:31:36;;;;;;;;;;;;;;;7.49;54.57;101668.56;6035296;23;97034;-84
2020/12/26 12:34:01;;;;;;;;;;;;;;;7.44;54.49;101673.00;6035926;23;99095;-83
2020/12/26 12:36:28;;;;;;;;;;;;;;;7.45;54.58;101672.13;6033374;23;98882;-84
2020/12/26 12:38:54;;;;;;;;;;;;;;;7.59;54.51;101675.50;6040414;23;96622;-84
2020/12/26 12:41:20;;;;;;;;;;;;;;;7.17;55.22;101666.19;6046871;23;96857;-82
2020/12/26 12:43:48;;;;;;;;;;;;;;;7.53;54.70;101665.03;6023332;23;97559;-86
2020/12/26 12:46:14;;;;;;;;;;;;;;;7.46;54.52;101665.97;6049266;23;98059;-89